sensor_id;sensor_type;location;lat;lon;timestamp;P1;durP1;ratioP1;P2;durP2;ratioP2
20002;SDS011;10162;41.600;23.806;2023-04-24T00:00:41;10.33;;;7.47;;
20002;SDS011;10162;41.600;23.806;2023-04-24T00:03:07;11.87;;;6.93;;
20002;SDS011;10162;41.600;23.806;2023-04-24T00:05:33;10.87;;;7.07;;
20002;SDS011;10162;41.600;23.806;2023-04-24T00:08:00;11.17;;;6.97;;
20002;SDS011;10162;41.600;23.806;2023-04-24T00:13:22;12.47;;;7.23;;
20002;SDS011;10162;41.600;23.806;2023-04-24T00:15:48;9.80;;;6.63;;
20002;SDS011;10162;41.600;23.806;2023-04-24T00:18:15;8.73;;;6.47;;
20002;SDS011;10162;41.600;23.806;2023-04-24T00:23:43;9.70;;;7.43;;
20002;SDS011;10162;41.600;23.806;2023-04-24T00:26:09;10.23;;;7.37;;
20002;SDS011;10162;41.600;23.806;2023-04-24T00:28:35;10.93;;;7.70;;
20002;SDS011;10162;41.600;23.806;2023-04-24T00:34:25;9.93;;;7.10;;
20002;SDS011;10162;41.600;23.806;2023-04-24T00:36:51;8.97;;;6.50;;
20002;SDS011;10162;41.600;23.806;2023-04-24T00:39:18;6.93;;;5.83;;
20002;SDS011;10162;41.600;23.806;2023-04-24T00:44:44;7.53;;;5.73;;
20002;SDS011;10162;41.600;23.806;2023-04-24T00:47:10;7.27;;;5.57;;
20002;SDS011;10162;41.600;23.806;2023-04-24T00:49:36;7.67;;;6.03;;
20002;SDS011;10162;41.600;23.806;2023-04-24T00:54:53;9.23;;;5.50;;
20002;SDS011;10162;41.600;23.806;2023-04-24T00:57:19;7.50;;;5.30;;
20002;SDS011;10162;41.600;23.806;2023-04-24T01:02:23;9.93;;;5.93;;
20002;SDS011;10162;41.600;23.806;2023-04-24T01:04:50;7.87;;;5.90;;
20002;SDS011;10162;41.600;23.806;2023-04-24T01:07:21;8.80;;;5.80;;
20002;SDS011;10162;41.600;23.806;2023-04-24T01:09:50;6.40;;;5.10;;
20002;SDS011;10162;41.600;23.806;2023-04-24T01:12:17;6.43;;;5.70;;
20002;SDS011;10162;41.600;23.806;2023-04-24T01:14:44;8.97;;;5.17;;
20002;SDS011;10162;41.600;23.806;2023-04-24T01:17:10;7.50;;;5.53;;
20002;SDS011;10162;41.600;23.806;2023-04-24T01:19:37;8.00;;;5.50;;
20002;SDS011;10162;41.600;23.806;2023-04-24T01:22:08;7.77;;;5.97;;
20002;SDS011;10162;41.600;23.806;2023-04-24T01:24:36;7.13;;;5.80;;
20002;SDS011;10162;41.600;23.806;2023-04-24T01:27:03;8.13;;;5.53;;
20002;SDS011;10162;41.600;23.806;2023-04-24T01:29:32;9.57;;;6.27;;
20002;SDS011;10162;41.600;23.806;2023-04-24T01:35:03;13.23;;;7.97;;
20002;SDS011;10162;41.600;23.806;2023-04-24T01:37:29;12.20;;;6.60;;
20002;SDS011;10162;41.600;23.806;2023-04-24T01:39:59;10.27;;;6.60;;
20002;SDS011;10162;41.600;23.806;2023-04-24T01:42:25;9.97;;;6.40;;
20002;SDS011;10162;41.600;23.806;2023-04-24T01:44:53;7.67;;;6.50;;
20002;SDS011;10162;41.600;23.806;2023-04-24T01:47:20;8.77;;;6.33;;
20002;SDS011;10162;41.600;23.806;2023-04-24T01:49:46;9.77;;;6.57;;
20002;SDS011;10162;41.600;23.806;2023-04-24T01:52:13;10.50;;;6.93;;
20002;SDS011;10162;41.600;23.806;2023-04-24T01:54:44;10.70;;;6.70;;
20002;SDS011;10162;41.600;23.806;2023-04-24T01:57:10;9.07;;;6.90;;
20002;SDS011;10162;41.600;23.806;2023-04-24T01:59:36;9.83;;;6.80;;
20002;SDS011;10162;41.600;23.806;2023-04-24T02:02:04;10.07;;;6.83;;
20002;SDS011;10162;41.600;23.806;2023-04-24T02:04:31;9.20;;;6.50;;
20002;SDS011;10162;41.600;23.806;2023-04-24T02:06:57;8.57;;;6.23;;
20002;SDS011;10162;41.600;23.806;2023-04-24T02:09:23;8.83;;;6.60;;
20002;SDS011;10162;41.600;23.806;2023-04-24T02:12:04;7.83;;;6.00;;
20002;SDS011;10162;41.600;23.806;2023-04-24T02:14:30;9.40;;;6.30;;
20002;SDS011;10162;41.600;23.806;2023-04-24T02:16:56;8.57;;;6.30;;
20002;SDS011;10162;41.600;23.806;2023-04-24T02:19:23;9.60;;;6.53;;
20002;SDS011;10162;41.600;23.806;2023-04-24T02:21:49;7.90;;;6.10;;
20002;SDS011;10162;41.600;23.806;2023-04-24T02:24:15;7.07;;;6.20;;
20002;SDS011;10162;41.600;23.806;2023-04-24T02:26:41;8.83;;;6.40;;
20002;SDS011;10162;41.600;23.806;2023-04-24T02:29:08;8.87;;;6.40;;
20002;SDS011;10162;41.600;23.806;2023-04-24T02:31:44;9.67;;;6.70;;
20002;SDS011;10162;41.600;23.806;2023-04-24T02:34:13;11.60;;;6.90;;
20002;SDS011;10162;41.600;23.806;2023-04-24T02:36:39;8.37;;;6.93;;
20002;SDS011;10162;41.600;23.806;2023-04-24T02:39:07;8.60;;;6.67;;
20002;SDS011;10162;41.600;23.806;2023-04-24T02:44:39;7.47;;;6.00;;
20002;SDS011;10162;41.600;23.806;2023-04-24T02:47:06;9.77;;;7.03;;
20002;SDS011;10162;41.600;23.806;2023-04-24T02:49:32;10.07;;;6.80;;
20002;SDS011;10162;41.600;23.806;2023-04-24T02:51:59;9.80;;;7.53;;
20002;SDS011;10162;41.600;23.806;2023-04-24T02:54:25;10.83;;;7.47;;
20002;SDS011;10162;41.600;23.806;2023-04-24T02:56:51;10.37;;;7.00;;
20002;SDS011;10162;41.600;23.806;2023-04-24T02:59:17;10.40;;;7.50;;
20002;SDS011;10162;41.600;23.806;2023-04-24T03:01:43;10.50;;;7.53;;
20002;SDS011;10162;41.600;23.806;2023-04-24T03:04:10;10.37;;;7.23;;
20002;SDS011;10162;41.600;23.806;2023-04-24T03:06:36;9.87;;;6.97;;
20002;SDS011;10162;41.600;23.806;2023-04-24T03:09:02;11.83;;;7.53;;
20002;SDS011;10162;41.600;23.806;2023-04-24T03:14:29;12.03;;;7.60;;
20002;SDS011;10162;41.600;23.806;2023-04-24T03:16:56;9.20;;;7.00;;
20002;SDS011;10162;41.600;23.806;2023-04-24T03:19:23;8.17;;;6.33;;
20002;SDS011;10162;41.600;23.806;2023-04-24T03:21:58;11.53;;;7.00;;
20002;SDS011;10162;41.600;23.806;2023-04-24T03:24:27;11.03;;;6.90;;
20002;SDS011;10162;41.600;23.806;2023-04-24T03:26:54;10.40;;;7.40;;
20002;SDS011;10162;41.600;23.806;2023-04-24T03:29:50;8.47;;;6.67;;
20002;SDS011;10162;41.600;23.806;2023-04-24T03:32:32;10.80;;;9.33;;
20002;SDS011;10162;41.600;23.806;2023-04-24T03:34:58;10.20;;;8.23;;
20002;SDS011;10162;41.600;23.806;2023-04-24T03:37:24;12.93;;;9.33;;
20002;SDS011;10162;41.600;23.806;2023-04-24T03:40:12;10.50;;;8.00;;
20002;SDS011;10162;41.600;23.806;2023-04-24T03:42:38;13.23;;;8.80;;
20002;SDS011;10162;41.600;23.806;2023-04-24T03:45:04;13.47;;;7.97;;
20002;SDS011;10162;41.600;23.806;2023-04-24T03:47:34;12.90;;;9.17;;
20002;SDS011;10162;41.600;23.806;2023-04-24T03:50:02;10.57;;;7.90;;
20002;SDS011;10162;41.600;23.806;2023-04-24T03:52:29;10.77;;;7.90;;
20002;SDS011;10162;41.600;23.806;2023-04-24T03:54:55;11.77;;;8.33;;
20002;SDS011;10162;41.600;23.806;2023-04-24T03:57:23;13.07;;;8.03;;
20002;SDS011;10162;41.600;23.806;2023-04-24T04:03:00;49.77;;;26.70;;
20002;SDS011;10162;41.600;23.806;2023-04-24T04:05:26;21.50;;;12.63;;
20002;SDS011;10162;41.600;23.806;2023-04-24T04:07:52;15.57;;;10.83;;
20002;SDS011;10162;41.600;23.806;2023-04-24T04:13:13;14.13;;;9.40;;
20002;SDS011;10162;41.600;23.806;2023-04-24T04:15:40;11.90;;;8.97;;
20002;SDS011;10162;41.600;23.806;2023-04-24T04:18:07;12.50;;;9.33;;
20002;SDS011;10162;41.600;23.806;2023-04-24T04:20:37;14.00;;;9.80;;
20002;SDS011;10162;41.600;23.806;2023-04-24T04:23:03;17.23;;;9.60;;
20002;SDS011;10162;41.600;23.806;2023-04-24T04:25:39;12.87;;;9.23;;
20002;SDS011;10162;41.600;23.806;2023-04-24T04:28:07;16.27;;;11.03;;
20002;SDS011;10162;41.600;23.806;2023-04-24T04:30:39;14.80;;;11.47;;
20002;SDS011;10162;41.600;23.806;2023-04-24T04:33:07;13.77;;;9.10;;
20002;SDS011;10162;41.600;23.806;2023-04-24T04:35:34;13.37;;;9.40;;
20002;SDS011;10162;41.600;23.806;2023-04-24T04:38:00;13.60;;;9.27;;
20002;SDS011;10162;41.600;23.806;2023-04-24T04:43:19;13.63;;;8.07;;
20002;SDS011;10162;41.600;23.806;2023-04-24T04:45:50;9.83;;;7.87;;
20002;SDS011;10162;41.600;23.806;2023-04-24T04:48:42;11.07;;;7.90;;
20002;SDS011;10162;41.600;23.806;2023-04-24T04:53:48;10.03;;;7.80;;
20002;SDS011;10162;41.600;23.806;2023-04-24T04:56:13;10.03;;;8.30;;
20002;SDS011;10162;41.600;23.806;2023-04-24T04:58:43;14.57;;;10.47;;
20002;SDS011;10162;41.600;23.806;2023-04-24T05:04:06;24.53;;;14.80;;
20002;SDS011;10162;41.600;23.806;2023-04-24T05:06:32;24.90;;;17.70;;
20002;SDS011;10162;41.600;23.806;2023-04-24T05:08:59;25.20;;;17.47;;
20002;SDS011;10162;41.600;23.806;2023-04-24T05:15:28;20.17;;;12.30;;
20002;SDS011;10162;41.600;23.806;2023-04-24T05:17:59;16.23;;;12.03;;
20002;SDS011;10162;41.600;23.806;2023-04-24T05:24:20;17.80;;;12.33;;
20002;SDS011;10162;41.600;23.806;2023-04-24T05:27:05;20.13;;;14.70;;
20002;SDS011;10162;41.600;23.806;2023-04-24T05:29:37;17.20;;;13.50;;
20002;SDS011;10162;41.600;23.806;2023-04-24T05:32:04;19.13;;;12.57;;
20002;SDS011;10162;41.600;23.806;2023-04-24T05:34:30;14.27;;;11.13;;
20002;SDS011;10162;41.600;23.806;2023-04-24T05:36:56;15.50;;;12.00;;
20002;SDS011;10162;41.600;23.806;2023-04-24T05:39:22;14.20;;;10.27;;
20002;SDS011;10162;41.600;23.806;2023-04-24T05:45:44;12.33;;;10.00;;
20002;SDS011;10162;41.600;23.806;2023-04-24T05:48:10;15.33;;;11.90;;
20002;SDS011;10162;41.600;23.806;2023-04-24T05:54:29;11.83;;;9.47;;
20002;SDS011;10162;41.600;23.806;2023-04-24T06:00:52;12.53;;;9.57;;
20002;SDS011;10162;41.600;23.806;2023-04-24T06:03:20;17.10;;;9.07;;
20002;SDS011;10162;41.600;23.806;2023-04-24T06:05:47;13.00;;;9.53;;
20002;SDS011;10162;41.600;23.806;2023-04-24T06:08:17;14.37;;;10.13;;
20002;SDS011;10162;41.600;23.806;2023-04-24T06:14:38;21.03;;;16.27;;
20002;SDS011;10162;41.600;23.806;2023-04-24T06:17:14;15.33;;;11.50;;
20002;SDS011;10162;41.600;23.806;2023-04-24T06:19:41;16.80;;;11.50;;
20002;SDS011;10162;41.600;23.806;2023-04-24T06:22:07;16.10;;;11.50;;
20002;SDS011;10162;41.600;23.806;2023-04-24T06:24:33;17.83;;;14.27;;
20002;SDS011;10162;41.600;23.806;2023-04-24T06:26:59;17.90;;;13.43;;
20002;SDS011;10162;41.600;23.806;2023-04-24T06:29:29;17.83;;;11.03;;
20002;SDS011;10162;41.600;23.806;2023-04-24T06:35:49;9.33;;;7.73;;
20002;SDS011;10162;41.600;23.806;2023-04-24T06:38:15;9.80;;;8.80;;
20002;SDS011;10162;41.600;23.806;2023-04-24T06:44:35;10.70;;;7.90;;
20002;SDS011;10162;41.600;23.806;2023-04-24T06:47:08;7.20;;;5.53;;
20002;SDS011;10162;41.600;23.806;2023-04-24T06:49:36;8.73;;;6.30;;
20002;SDS011;10162;41.600;23.806;2023-04-24T06:52:03;5.93;;;5.33;;
20002;SDS011;10162;41.600;23.806;2023-04-24T06:54:30;10.57;;;9.50;;
20002;SDS011;10162;41.600;23.806;2023-04-24T06:56:56;7.60;;;6.67;;
20002;SDS011;10162;41.600;23.806;2023-04-24T06:59:26;8.53;;;6.97;;
20002;SDS011;10162;41.600;23.806;2023-04-24T07:05:49;5.57;;;4.93;;
20002;SDS011;10162;41.600;23.806;2023-04-24T07:08:16;6.37;;;5.40;;
20002;SDS011;10162;41.600;23.806;2023-04-24T07:14:36;7.10;;;6.40;;
20002;SDS011;10162;41.600;23.806;2023-04-24T07:17:03;6.03;;;5.43;;
20002;SDS011;10162;41.600;23.806;2023-04-24T07:19:29;7.40;;;6.07;;
20002;SDS011;10162;41.600;23.806;2023-04-24T07:25:50;10.70;;;6.90;;
20002;SDS011;10162;41.600;23.806;2023-04-24T07:28:17;8.20;;;6.37;;
20002;SDS011;10162;41.600;23.806;2023-04-24T07:34:37;6.33;;;5.73;;
20002;SDS011;10162;41.600;23.806;2023-04-24T07:37:03;9.70;;;6.93;;
20002;SDS011;10162;41.600;23.806;2023-04-24T07:39:29;6.67;;;6.07;;
20002;SDS011;10162;41.600;23.806;2023-04-24T07:45:51;6.60;;;5.73;;
20002;SDS011;10162;41.600;23.806;2023-04-24T07:48:17;6.97;;;6.27;;
20002;SDS011;10162;41.600;23.806;2023-04-24T07:54:37;6.70;;;5.40;;
20002;SDS011;10162;41.600;23.806;2023-04-24T07:57:03;5.77;;;5.17;;
20002;SDS011;10162;41.600;23.806;2023-04-24T07:59:29;6.03;;;5.20;;
20002;SDS011;10162;41.600;23.806;2023-04-24T08:05:50;6.23;;;5.63;;
20002;SDS011;10162;41.600;23.806;2023-04-24T08:08:16;5.90;;;5.20;;
20002;SDS011;10162;41.600;23.806;2023-04-24T08:14:36;7.20;;;5.40;;
20002;SDS011;10162;41.600;23.806;2023-04-24T08:17:04;6.33;;;5.73;;
20002;SDS011;10162;41.600;23.806;2023-04-24T08:19:30;6.07;;;5.23;;
20002;SDS011;10162;41.600;23.806;2023-04-24T08:25:50;6.73;;;4.80;;
20002;SDS011;10162;41.600;23.806;2023-04-24T08:28:19;5.03;;;4.50;;
20002;SDS011;10162;41.600;23.806;2023-04-24T08:34:39;5.13;;;4.43;;
20002;SDS011;10162;41.600;23.806;2023-04-24T08:37:05;5.57;;;4.77;;
20002;SDS011;10162;41.600;23.806;2023-04-24T08:39:31;4.77;;;4.37;;
20002;SDS011;10162;41.600;23.806;2023-04-24T08:45:52;5.27;;;4.50;;
20002;SDS011;10162;41.600;23.806;2023-04-24T08:48:22;6.10;;;4.80;;
20002;SDS011;10162;41.600;23.806;2023-04-24T08:54:42;5.80;;;5.20;;
20002;SDS011;10162;41.600;23.806;2023-04-24T08:57:11;173.83;;;15.77;;
20002;SDS011;10162;41.600;23.806;2023-04-24T08:59:39;6.43;;;5.00;;
20002;SDS011;10162;41.600;23.806;2023-04-24T09:02:09;5.30;;;4.77;;
20002;SDS011;10162;41.600;23.806;2023-04-24T09:04:37;5.10;;;4.70;;
20002;SDS011;10162;41.600;23.806;2023-04-24T09:07:03;5.50;;;4.50;;
20002;SDS011;10162;41.600;23.806;2023-04-24T09:09:31;5.27;;;4.70;;
20002;SDS011;10162;41.600;23.806;2023-04-24T09:15:54;5.77;;;5.13;;
20002;SDS011;10162;41.600;23.806;2023-04-24T09:18:23;5.03;;;4.53;;
20002;SDS011;10162;41.600;23.806;2023-04-24T09:24:44;7.97;;;5.20;;
20002;SDS011;10162;41.600;23.806;2023-04-24T09:27:11;4.47;;;4.07;;
20002;SDS011;10162;41.600;23.806;2023-04-24T09:29:37;5.73;;;5.17;;
20002;SDS011;10162;41.600;23.806;2023-04-24T09:32:20;5.17;;;4.67;;
20002;SDS011;10162;41.600;23.806;2023-04-24T09:34:49;6.10;;;4.63;;
20002;SDS011;10162;41.600;23.806;2023-04-24T09:37:27;6.53;;;5.00;;
20002;SDS011;10162;41.600;23.806;2023-04-24T09:43:09;6.53;;;4.50;;
20002;SDS011;10162;41.600;23.806;2023-04-24T09:45:37;7.27;;;4.67;;
20002;SDS011;10162;41.600;23.806;2023-04-24T09:48:05;6.37;;;4.70;;
20002;SDS011;10162;41.600;23.806;2023-04-24T09:53:18;5.40;;;4.70;;
20002;SDS011;10162;41.600;23.806;2023-04-24T09:55:50;9.43;;;7.80;;
20002;SDS011;10162;41.600;23.806;2023-04-24T09:58:18;10.13;;;6.47;;
20002;SDS011;10162;41.600;23.806;2023-04-24T10:03:41;6.03;;;4.53;;
20002;SDS011;10162;41.600;23.806;2023-04-24T10:06:07;5.80;;;5.30;;
20002;SDS011;10162;41.600;23.806;2023-04-24T10:08:39;4.70;;;4.30;;
20002;SDS011;10162;41.600;23.806;2023-04-24T10:14:01;6.87;;;4.73;;
20002;SDS011;10162;41.600;23.806;2023-04-24T10:16:27;8.37;;;5.13;;
20002;SDS011;10162;41.600;23.806;2023-04-24T10:18:55;4.53;;;4.10;;
20002;SDS011;10162;41.600;23.806;2023-04-24T10:25:20;4.83;;;4.33;;
20002;SDS011;10162;41.600;23.806;2023-04-24T10:27:47;7.43;;;4.20;;
20002;SDS011;10162;41.600;23.806;2023-04-24T10:34:10;4.63;;;4.23;;
20002;SDS011;10162;41.600;23.806;2023-04-24T10:36:37;4.77;;;4.37;;
20002;SDS011;10162;41.600;23.806;2023-04-24T10:39:08;4.87;;;4.40;;
20002;SDS011;10162;41.600;23.806;2023-04-24T10:45:31;5.33;;;4.50;;
20002;SDS011;10162;41.600;23.806;2023-04-24T10:53:36;116.10;;;10.77;;
20002;SDS011;10162;41.600;23.806;2023-04-24T10:56:03;4.90;;;4.10;;
20002;SDS011;10162;41.600;23.806;2023-04-24T10:58:44;4.60;;;4.20;;
20002;SDS011;10162;41.600;23.806;2023-04-24T11:05:15;4.27;;;3.87;;
20002;SDS011;10162;41.600;23.806;2023-04-24T11:17:33;3.78;;;3.45;;
20002;SDS011;10162;41.600;23.806;2023-04-24T11:20:23;4.72;;;4.30;;
20002;SDS011;10162;41.600;23.806;2023-04-24T11:22:53;7.38;;;5.20;;
20002;SDS011;10162;41.600;23.806;2023-04-24T11:25:20;4.20;;;3.90;;
20002;SDS011;10162;41.600;23.806;2023-04-24T11:27:48;4.55;;;3.85;;
20002;SDS011;10162;41.600;23.806;2023-04-24T11:34:12;8.27;;;3.85;;
20002;SDS011;10162;41.600;23.806;2023-04-24T11:36:44;6.53;;;3.35;;
20002;SDS011;10162;41.600;23.806;2023-04-24T11:39:11;4.30;;;3.90;;
20002;SDS011;10162;41.600;23.806;2023-04-24T11:45:32;4.95;;;3.70;;
20002;SDS011;10162;41.600;23.806;2023-04-24T11:47:58;4.28;;;3.65;;
20002;SDS011;10162;41.600;23.806;2023-04-24T11:54:18;6.63;;;4.03;;
20002;SDS011;10162;41.600;23.806;2023-04-24T11:56:44;3.70;;;3.28;;
20002;SDS011;10162;41.600;23.806;2023-04-24T12:02:45;3.17;;;2.80;;
20002;SDS011;10162;41.600;23.806;2023-04-24T12:05:19;3.45;;;3.08;;
20002;SDS011;10162;41.600;23.806;2023-04-24T12:10:47;3.13;;;2.88;;
20002;SDS011;10162;41.600;23.806;2023-04-24T12:13:19;3.22;;;2.92;;
20002;SDS011;10162;41.600;23.806;2023-04-24T12:15:46;4.28;;;2.65;;
20002;SDS011;10162;41.600;23.806;2023-04-24T12:18:12;3.30;;;2.60;;
20002;SDS011;10162;41.600;23.806;2023-04-24T12:23:09;2.88;;;2.63;;
20002;SDS011;10162;41.600;23.806;2023-04-24T12:25:35;3.15;;;2.85;;
20002;SDS011;10162;41.600;23.806;2023-04-24T12:30:50;3.05;;;2.75;;
20002;SDS011;10162;41.600;23.806;2023-04-24T12:33:19;3.63;;;3.08;;
20002;SDS011;10162;41.600;23.806;2023-04-24T12:35:47;4.20;;;2.97;;
20002;SDS011;10162;41.600;23.806;2023-04-24T12:38:21;3.35;;;2.70;;
20002;SDS011;10162;41.600;23.806;2023-04-24T12:44:46;3.00;;;2.80;;
20002;SDS011;10162;41.600;23.806;2023-04-24T12:47:16;3.10;;;2.80;;
20002;SDS011;10162;41.600;23.806;2023-04-24T12:49:41;3.63;;;2.50;;
20002;SDS011;10162;41.600;23.806;2023-04-24T12:52:07;5.05;;;3.38;;
20002;SDS011;10162;41.600;23.806;2023-04-24T12:54:33;3.67;;;3.25;;
20002;SDS011;10162;41.600;23.806;2023-04-24T12:57:00;4.95;;;2.95;;
20002;SDS011;10162;41.600;23.806;2023-04-24T12:59:26;3.85;;;3.20;;
20002;SDS011;10162;41.600;23.806;2023-04-24T13:04:26;4.43;;;3.05;;
20002;SDS011;10162;41.600;23.806;2023-04-24T13:06:52;3.38;;;3.08;;
20002;SDS011;10162;41.600;23.806;2023-04-24T13:09:19;3.10;;;2.83;;
20002;SDS011;10162;41.600;23.806;2023-04-24T13:11:55;2.72;;;2.47;;
20002;SDS011;10162;41.600;23.806;2023-04-24T13:14:23;3.05;;;2.50;;
20002;SDS011;10162;41.600;23.806;2023-04-24T13:16:49;4.85;;;2.38;;
20002;SDS011;10162;41.600;23.806;2023-04-24T13:19:17;5.50;;;2.30;;
20002;SDS011;10162;41.600;23.806;2023-04-24T13:24:13;4.93;;;3.20;;
20002;SDS011;10162;41.600;23.806;2023-04-24T13:26:41;2.78;;;2.58;;
20002;SDS011;10162;41.600;23.806;2023-04-24T13:29:08;3.33;;;2.95;;
20002;SDS011;10162;41.600;23.806;2023-04-24T13:31:35;3.08;;;2.85;;
20002;SDS011;10162;41.600;23.806;2023-04-24T13:34:01;2.95;;;2.60;;
20002;SDS011;10162;41.600;23.806;2023-04-24T13:36:28;3.72;;;3.00;;
20002;SDS011;10162;41.600;23.806;2023-04-24T13:38:57;3.60;;;2.95;;
20002;SDS011;10162;41.600;23.806;2023-04-24T13:41:23;3.78;;;3.22;;
20002;SDS011;10162;41.600;23.806;2023-04-24T13:43:49;6.05;;;3.33;;
20002;SDS011;10162;41.600;23.806;2023-04-24T13:46:22;3.90;;;3.00;;
20002;SDS011;10162;41.600;23.806;2023-04-24T13:48:49;7.72;;;4.55;;
20002;SDS011;10162;41.600;23.806;2023-04-24T13:51:15;4.00;;;3.28;;
20002;SDS011;10162;41.600;23.806;2023-04-24T13:53:41;3.60;;;3.25;;
20002;SDS011;10162;41.600;23.806;2023-04-24T13:56:06;4.30;;;3.30;;
20002;SDS011;10162;41.600;23.806;2023-04-24T13:58:33;7.95;;;5.32;;
20002;SDS011;10162;41.600;23.806;2023-04-24T14:03:52;5.90;;;4.05;;
20002;SDS011;10162;41.600;23.806;2023-04-24T14:06:18;3.55;;;2.85;;
20002;SDS011;10162;41.600;23.806;2023-04-24T14:08:46;5.43;;;4.43;;
20002;SDS011;10162;41.600;23.806;2023-04-24T14:11:13;3.65;;;3.35;;
20002;SDS011;10162;41.600;23.806;2023-04-24T14:13:42;4.07;;;3.78;;
20002;SDS011;10162;41.600;23.806;2023-04-24T14:16:09;3.53;;;3.22;;
20002;SDS011;10162;41.600;23.806;2023-04-24T14:18:35;4.82;;;3.17;;
20002;SDS011;10162;41.600;23.806;2023-04-24T14:21:01;4.40;;;3.15;;
20002;SDS011;10162;41.600;23.806;2023-04-24T14:23:31;4.47;;;3.33;;
20002;SDS011;10162;41.600;23.806;2023-04-24T14:25:57;5.25;;;3.40;;
20002;SDS011;10162;41.600;23.806;2023-04-24T14:28:23;4.88;;;3.25;;
20002;SDS011;10162;41.600;23.806;2023-04-24T14:30:56;3.42;;;3.13;;
20002;SDS011;10162;41.600;23.806;2023-04-24T14:33:23;3.47;;;3.17;;
20002;SDS011;10162;41.600;23.806;2023-04-24T14:35:49;6.65;;;3.67;;
20002;SDS011;10162;41.600;23.806;2023-04-24T14:38:17;4.65;;;2.92;;
20002;SDS011;10162;41.600;23.806;2023-04-24T14:40:42;3.42;;;3.13;;
20002;SDS011;10162;41.600;23.806;2023-04-24T14:43:09;4.55;;;2.90;;
20002;SDS011;10162;41.600;23.806;2023-04-24T14:45:36;5.78;;;3.20;;
20002;SDS011;10162;41.600;23.806;2023-04-24T14:48:02;6.38;;;4.00;;
20002;SDS011;10162;41.600;23.806;2023-04-24T14:50:46;3.47;;;3.17;;
20002;SDS011;10162;41.600;23.806;2023-04-24T14:53:12;4.65;;;3.40;;
20002;SDS011;10162;41.600;23.806;2023-04-24T14:55:38;4.30;;;3.45;;
20002;SDS011;10162;41.600;23.806;2023-04-24T14:58:05;42.33;;;14.00;;
20002;SDS011;10162;41.600;23.806;2023-04-24T15:00:49;16.98;;;7.68;;
20002;SDS011;10162;41.600;23.806;2023-04-24T15:03:21;8.48;;;4.57;;
20002;SDS011;10162;41.600;23.806;2023-04-24T15:05:47;6.63;;;3.58;;
20002;SDS011;10162;41.600;23.806;2023-04-24T15:08:13;5.90;;;4.03;;
20002;SDS011;10162;41.600;23.806;2023-04-24T15:10:39;5.40;;;4.87;;
20002;SDS011;10162;41.600;23.806;2023-04-24T15:13:05;6.13;;;4.53;;
20002;SDS011;10162;41.600;23.806;2023-04-24T15:15:31;7.83;;;4.23;;
20002;SDS011;10162;41.600;23.806;2023-04-24T15:17:58;5.40;;;4.00;;
20002;SDS011;10162;41.600;23.806;2023-04-24T15:23:11;6.93;;;4.60;;
20002;SDS011;10162;41.600;23.806;2023-04-24T15:25:40;4.53;;;4.00;;
20002;SDS011;10162;41.600;23.806;2023-04-24T15:28:09;5.80;;;5.20;;
20002;SDS011;10162;41.600;23.806;2023-04-24T15:33:25;8.13;;;4.60;;
20002;SDS011;10162;41.600;23.806;2023-04-24T15:35:51;5.60;;;4.50;;
20002;SDS011;10162;41.600;23.806;2023-04-24T15:38:18;5.53;;;4.30;;
20002;SDS011;10162;41.600;23.806;2023-04-24T15:43:30;6.63;;;4.73;;
20002;SDS011;10162;41.600;23.806;2023-04-24T15:45:59;5.33;;;4.30;;
20002;SDS011;10162;41.600;23.806;2023-04-24T15:48:27;5.17;;;4.40;;
20002;SDS011;10162;41.600;23.806;2023-04-24T15:50:55;5.60;;;4.10;;
20002;SDS011;10162;41.600;23.806;2023-04-24T15:53:21;4.63;;;4.23;;
20002;SDS011;10162;41.600;23.806;2023-04-24T15:55:47;6.93;;;3.93;;
20002;SDS011;10162;41.600;23.806;2023-04-24T15:58:14;6.50;;;4.47;;
20002;SDS011;10162;41.600;23.806;2023-04-24T16:00:40;7.30;;;4.10;;
20002;SDS011;10162;41.600;23.806;2023-04-24T16:03:07;6.63;;;3.90;;
20002;SDS011;10162;41.600;23.806;2023-04-24T16:05:32;4.97;;;4.47;;
20002;SDS011;10162;41.600;23.806;2023-04-24T16:07:59;6.30;;;4.77;;
20002;SDS011;10162;41.600;23.806;2023-04-24T16:10:26;8.43;;;5.57;;
20002;SDS011;10162;41.600;23.806;2023-04-24T16:12:52;6.37;;;4.53;;
20002;SDS011;10162;41.600;23.806;2023-04-24T16:15:21;7.10;;;4.73;;
20002;SDS011;10162;41.600;23.806;2023-04-24T16:17:48;8.07;;;4.60;;
20002;SDS011;10162;41.600;23.806;2023-04-24T16:20:20;8.60;;;4.80;;
20002;SDS011;10162;41.600;23.806;2023-04-24T16:22:47;6.60;;;4.27;;
20002;SDS011;10162;41.600;23.806;2023-04-24T16:25:12;4.97;;;4.53;;
20002;SDS011;10162;41.600;23.806;2023-04-24T16:27:39;10.50;;;5.03;;
20002;SDS011;10162;41.600;23.806;2023-04-24T16:32:53;10.37;;;6.63;;
20002;SDS011;10162;41.600;23.806;2023-04-24T16:35:18;10.13;;;6.57;;
20002;SDS011;10162;41.600;23.806;2023-04-24T16:37:44;9.80;;;6.20;;
20002;SDS011;10162;41.600;23.806;2023-04-24T16:40:20;5.80;;;5.10;;
20002;SDS011;10162;41.600;23.806;2023-04-24T16:42:46;8.40;;;5.50;;
20002;SDS011;10162;41.600;23.806;2023-04-24T16:45:12;10.33;;;6.17;;
20002;SDS011;10162;41.600;23.806;2023-04-24T16:47:38;12.37;;;6.77;;
20002;SDS011;10162;41.600;23.806;2023-04-24T16:50:18;8.80;;;6.10;;
20002;SDS011;10162;41.600;23.806;2023-04-24T16:52:45;6.60;;;5.67;;
20002;SDS011;10162;41.600;23.806;2023-04-24T16:55:11;7.93;;;6.50;;
20002;SDS011;10162;41.600;23.806;2023-04-24T16:57:37;7.70;;;6.00;;
20002;SDS011;10162;41.600;23.806;2023-04-24T17:03:10;9.37;;;5.47;;
20002;SDS011;10162;41.600;23.806;2023-04-24T17:05:36;8.17;;;6.33;;
20002;SDS011;10162;41.600;23.806;2023-04-24T17:08:03;7.53;;;5.43;;
20002;SDS011;10162;41.600;23.806;2023-04-24T17:10:36;7.73;;;5.33;;
20002;SDS011;10162;41.600;23.806;2023-04-24T17:13:02;9.87;;;6.30;;
20002;SDS011;10162;41.600;23.806;2023-04-24T17:15:30;7.83;;;5.20;;
20002;SDS011;10162;41.600;23.806;2023-04-24T17:17:57;6.70;;;5.30;;
20002;SDS011;10162;41.600;23.806;2023-04-24T17:20:33;11.90;;;8.30;;
20002;SDS011;10162;41.600;23.806;2023-04-24T17:22:59;6.73;;;4.87;;
20002;SDS011;10162;41.600;23.806;2023-04-24T17:25:25;5.53;;;4.50;;
20002;SDS011;10162;41.600;23.806;2023-04-24T17:27:51;7.77;;;4.87;;
20002;SDS011;10162;41.600;23.806;2023-04-24T17:34:12;9.63;;;5.20;;
20002;SDS011;10162;41.600;23.806;2023-04-24T17:36:37;6.73;;;5.67;;
20002;SDS011;10162;41.600;23.806;2023-04-24T17:39:03;6.07;;;5.17;;
20002;SDS011;10162;41.600;23.806;2023-04-24T17:45:25;7.17;;;4.93;;
20002;SDS011;10162;41.600;23.806;2023-04-24T17:47:51;6.97;;;5.17;;
20002;SDS011;10162;41.600;23.806;2023-04-24T17:54:12;9.17;;;6.40;;
20002;SDS011;10162;41.600;23.806;2023-04-24T17:56:37;7.27;;;5.13;;
20002;SDS011;10162;41.600;23.806;2023-04-24T17:59:03;6.27;;;4.60;;
20002;SDS011;10162;41.600;23.806;2023-04-24T18:05:27;5.30;;;3.60;;
20002;SDS011;10162;41.600;23.806;2023-04-24T18:07:57;6.40;;;5.47;;
20002;SDS011;10162;41.600;23.806;2023-04-24T18:14:17;8.57;;;4.97;;
20002;SDS011;10162;41.600;23.806;2023-04-24T18:16:43;6.60;;;4.60;;
20002;SDS011;10162;41.600;23.806;2023-04-24T18:19:09;7.97;;;5.30;;
20002;SDS011;10162;41.600;23.806;2023-04-24T18:25:28;18.53;;;8.77;;
20002;SDS011;10162;41.600;23.806;2023-04-24T18:27:55;6.07;;;4.00;;
20002;SDS011;10162;41.600;23.806;2023-04-24T18:34:15;8.83;;;5.73;;
20002;SDS011;10162;41.600;23.806;2023-04-24T18:36:42;6.93;;;4.47;;
20002;SDS011;10162;41.600;23.806;2023-04-24T18:39:08;5.73;;;4.00;;
20002;SDS011;10162;41.600;23.806;2023-04-24T18:45:29;5.20;;;4.40;;